sensor_id;sensor_type;location;lat;lon;timestamp;pressure;altitude;pressure_sealevel;temperature;humidity
10097;BME280;5087;42.662;23.466;2023-06-14T00:02:18;95121.53;;;15.92;100.00
10097;BME280;5087;42.662;23.466;2023-06-14T00:04:45;95107.94;;;15.79;100.00
10097;BME280;5087;42.662;23.466;2023-06-14T00:07:14;95107.47;;;15.58;100.00
10097;BME280;5087;42.662;23.466;2023-06-14T00:09:42;95100.56;;;15.64;100.00
10097;BME280;5087;42.662;23.466;2023-06-14T00:12:09;95110.44;;;15.69;100.00
10097;BME280;5087;42.662;23.466;2023-06-14T00:14:37;95111.81;;;15.78;100.00
10097;BME280;5087;42.662;23.466;2023-06-14T00:17:05;95071.38;;;15.52;100.00
10097;BME280;5087;42.662;23.466;2023-06-14T00:19:34;95098.41;;;15.73;100.00
10097;BME280;5087;42.662;23.466;2023-06-14T00:22:02;95098.91;;;15.95;100.00
10097;BME280;5087;42.662;23.466;2023-06-14T00:24:30;95092.06;;;15.69;100.00
10097;BME280;5087;42.662;23.466;2023-06-14T00:26:57;95087.69;;;16.00;100.00
10097;BME280;5087;42.662;23.466;2023-06-14T00:29:25;95099.63;;;15.92;100.00
10097;BME280;5087;42.662;23.466;2023-06-14T00:31:53;95091.31;;;16.04;100.00
10097;BME280;5087;42.662;23.466;2023-06-14T00:34:20;95087.84;;;16.27;100.00
10097;BME280;5087;42.662;23.466;2023-06-14T00:36:49;95094.19;;;16.31;100.00
10097;BME280;5087;42.662;23.466;2023-06-14T00:39:16;95082.09;;;16.12;100.00
10097;BME280;5087;42.662;23.466;2023-06-14T00:41:44;95080.53;;;15.95;100.00
10097;BME280;5087;42.662;23.466;2023-06-14T00:44:11;95081.75;;;15.98;100.00
10097;BME280;5087;42.662;23.466;2023-06-14T00:46:41;95088.97;;;16.06;100.00
10097;BME280;5087;42.662;23.466;2023-06-14T00:49:08;95080.81;;;15.90;100.00
10097;BME280;5087;42.662;23.466;2023-06-14T00:51:36;95084.78;;;15.93;100.00
10097;BME280;5087;42.662;23.466;2023-06-14T00:54:06;95069.63;;;15.79;100.00
10097;BME280;5087;42.662;23.466;2023-06-14T00:56:35;95077.94;;;15.83;100.00
10097;BME280;5087;42.662;23.466;2023-06-14T00:59:06;95078.63;;;15.80;100.00
10097;BME280;5087;42.662;23.466;2023-06-14T01:01:34;95082.00;;;15.73;100.00
10097;BME280;5087;42.662;23.466;2023-06-14T01:04:03;95073.59;;;15.82;100.00
10097;BME280;5087;42.662;23.466;2023-06-14T01:06:35;95074.38;;;15.82;100.00
10097;BME280;5087;42.662;23.466;2023-06-14T01:09:16;95086.31;;;15.90;100.00
10097;BME280;5087;42.662;23.466;2023-06-14T01:11:50;95079.47;;;16.00;100.00
10097;BME280;5087;42.662;23.466;2023-06-14T01:14:21;95077.72;;;15.92;100.00
10097;BME280;5087;42.662;23.466;2023-06-14T01:16:50;95075.88;;;15.80;100.00
10097;BME280;5087;42.662;23.466;2023-06-14T01:19:20;95057.63;;;15.68;100.00
10097;BME280;5087;42.662;23.466;2023-06-14T01:21:51;95068.56;;;15.68;100.00
10097;BME280;5087;42.662;23.466;2023-06-14T01:24:21;95075.31;;;15.71;100.00
10097;BME280;5087;42.662;23.466;2023-06-14T01:26:53;95063.59;;;15.54;100.00
10097;BME280;5087;42.662;23.466;2023-06-14T01:29:25;95055.31;;;15.50;100.00
10097;BME280;5087;42.662;23.466;2023-06-14T01:31:59;95072.81;;;15.81;100.00
10097;BME280;5087;42.662;23.466;2023-06-14T01:34:30;95067.91;;;15.91;100.00
10097;BME280;5087;42.662;23.466;2023-06-14T01:36:58;95083.56;;;16.10;100.00
10097;BME280;5087;42.662;23.466;2023-06-14T01:39:29;95073.13;;;15.96;100.00
10097;BME280;5087;42.662;23.466;2023-06-14T01:41:57;95071.78;;;16.06;100.00
10097;BME280;5087;42.662;23.466;2023-06-14T01:44:25;95073.56;;;16.18;100.00
10097;BME280;5087;42.662;23.466;2023-06-14T01:46:56;95069.53;;;16.11;100.00
10097;BME280;5087;42.662;23.466;2023-06-14T01:49:24;95075.72;;;15.89;100.00
10097;BME280;5087;42.662;23.466;2023-06-14T01:51:53;95064.69;;;15.69;100.00
10097;BME280;5087;42.662;23.466;2023-06-14T01:54:20;95090.91;;;15.70;100.00
10097;BME280;5087;42.662;23.466;2023-06-14T01:56:50;95072.56;;;15.71;100.00
10097;BME280;5087;42.662;23.466;2023-06-14T01:59:17;95069.72;;;15.67;100.00
10097;BME280;5087;42.662;23.466;2023-06-14T02:01:44;95070.91;;;15.66;100.00
10097;BME280;5087;42.662;23.466;2023-06-14T02:04:12;95073.72;;;15.70;100.00
10097;BME280;5087;42.662;23.466;2023-06-14T02:06:39;95077.78;;;15.60;100.00
10097;BME280;5087;42.662;23.466;2023-06-14T02:09:07;95073.72;;;15.54;100.00
10097;BME280;5087;42.662;23.466;2023-06-14T02:11:34;95066.97;;;15.47;100.00
10097;BME280;5087;42.662;23.466;2023-06-14T02:14:04;95091.41;;;15.40;100.00
10097;BME280;5087;42.662;23.466;2023-06-14T02:16:32;95103.41;;;15.51;100.00
10097;BME280;5087;42.662;23.466;2023-06-14T02:19:01;95082.78;;;15.22;100.00
10097;BME280;5087;42.662;23.466;2023-06-14T02:21:30;95094.84;;;15.37;100.00
10097;BME280;5087;42.662;23.466;2023-06-14T02:24:00;95109.94;;;15.47;100.00
10097;BME280;5087;42.662;23.466;2023-06-14T02:26:28;95099.34;;;15.45;100.00
10097;BME280;5087;42.662;23.466;2023-06-14T02:28:56;95103.94;;;15.41;100.00
10097;BME280;5087;42.662;23.466;2023-06-14T02:31:25;95081.28;;;15.25;100.00
10097;BME280;5087;42.662;23.466;2023-06-14T02:33:54;95119.63;;;15.60;100.00
10097;BME280;5087;42.662;23.466;2023-06-14T02:36:22;95113.78;;;15.62;100.00
10097;BME280;5087;42.662;23.466;2023-06-14T02:38:50;95104.81;;;15.45;100.00
10097;BME280;5087;42.662;23.466;2023-06-14T02:41:20;95072.44;;;15.15;100.00
10097;BME280;5087;42.662;23.466;2023-06-14T02:43:49;95103.84;;;15.38;100.00
10097;BME280;5087;42.662;23.466;2023-06-14T02:46:17;95080.59;;;15.28;100.00
10097;BME280;5087;42.662;23.466;2023-06-14T02:48:47;95107.53;;;15.45;100.00
10097;BME280;5087;42.662;23.466;2023-06-14T02:51:14;95114.78;;;15.38;100.00
10097;BME280;5087;42.662;23.466;2023-06-14T02:53:42;95107.91;;;15.44;100.00
10097;BME280;5087;42.662;23.466;2023-06-14T02:56:10;95110.84;;;15.35;100.00
10097;BME280;5087;42.662;23.466;2023-06-14T02:58:38;95112.75;;;15.50;100.00
10097;BME280;5087;42.662;23.466;2023-06-14T03:01:06;95112.94;;;15.58;100.00
10097;BME280;5087;42.662;23.466;2023-06-14T03:03:35;95127.38;;;15.74;100.00
10097;BME280;5087;42.662;23.466;2023-06-14T03:06:05;95065.00;;;15.48;100.00
10097;BME280;5087;42.662;23.466;2023-06-14T03:08:37;95115.78;;;15.81;100.00
10097;BME280;5087;42.662;23.466;2023-06-14T03:11:11;95124.72;;;15.94;100.00
10097;BME280;5087;42.662;23.466;2023-06-14T03:13:40;95125.84;;;15.93;100.00
10097;BME280;5087;42.662;23.466;2023-06-14T03:16:13;95098.25;;;15.66;100.00
10097;BME280;5087;42.662;23.466;2023-06-14T03:18:40;95123.31;;;15.68;100.00
10097;BME280;5087;42.662;23.466;2023-06-14T03:21:10;95120.31;;;15.73;100.00
10097;BME280;5087;42.662;23.466;2023-06-14T03:23:41;95105.94;;;15.60;100.00
10097;BME280;5087;42.662;23.466;2023-06-14T03:26:09;95120.16;;;15.66;100.00
10097;BME280;5087;42.662;23.466;2023-06-14T03:28:41;95132.16;;;15.45;100.00
10097;BME280;5087;42.662;23.466;2023-06-14T03:31:08;95123.25;;;15.48;100.00
10097;BME280;5087;42.662;23.466;2023-06-14T03:33:36;95126.00;;;15.48;100.00
10097;BME280;5087;42.662;23.466;2023-06-14T03:36:04;95109.59;;;15.32;100.00
10097;BME280;5087;42.662;23.466;2023-06-14T03:38:34;95130.13;;;15.26;100.00
10097;BME280;5087;42.662;23.466;2023-06-14T03:41:03;95123.63;;;15.31;100.00
10097;BME280;5087;42.662;23.466;2023-06-14T03:43:32;95126.00;;;15.16;100.00
10097;BME280;5087;42.662;23.466;2023-06-14T03:46:01;95126.53;;;15.22;100.00
10097;BME280;5087;42.662;23.466;2023-06-14T03:48:30;95137.47;;;15.38;100.00
10097;BME280;5087;42.662;23.466;2023-06-14T03:50:57;95111.41;;;15.44;100.00
10097;BME280;5087;42.662;23.466;2023-06-14T03:53:27;95128.78;;;15.68;100.00
10097;BME280;5087;42.662;23.466;2023-06-14T03:55:59;95134.72;;;15.54;100.00
10097;BME280;5087;42.662;23.466;2023-06-14T03:58:36;95120.59;;;15.52;100.00
10097;BME280;5087;42.662;23.466;2023-06-14T04:01:04;95117.16;;;15.39;100.00
10097;BME280;5087;42.662;23.466;2023-06-14T04:03:33;95135.06;;;15.52;100.00
10097;BME280;5087;42.662;23.466;2023-06-14T04:06:01;95135.06;;;15.52;100.00
10097;BME280;5087;42.662;23.466;2023-06-14T04:08:29;95140.81;;;15.47;100.00
10097;BME280;5087;42.662;23.466;2023-06-14T04:10:59;95146.00;;;15.69;100.00
10097;BME280;5087;42.662;23.466;2023-06-14T04:13:30;95136.13;;;15.64;100.00
10097;BME280;5087;42.662;23.466;2023-06-14T04:16:01;95110.19;;;15.42;100.00
10097;BME280;5087;42.662;23.466;2023-06-14T04:18:35;95143.97;;;15.81;100.00
10097;BME280;5087;42.662;23.466;2023-06-14T04:21:03;95132.84;;;15.90;100.00
10097;BME280;5087;42.662;23.466;2023-06-14T04:23:31;95149.56;;;15.85;100.00
10097;BME280;5087;42.662;23.466;2023-06-14T04:26:02;95126.13;;;15.88;100.00
10097;BME280;5087;42.662;23.466;2023-06-14T04:28:30;95086.25;;;15.55;100.00
10097;BME280;5087;42.662;23.466;2023-06-14T04:30:59;95148.53;;;15.77;100.00
10097;BME280;5087;42.662;23.466;2023-06-14T04:33:30;95140.44;;;15.97;100.00
10097;BME280;5087;42.662;23.466;2023-06-14T04:35:58;95134.56;;;15.82;100.00
10097;BME280;5087;42.662;23.466;2023-06-14T04:38:26;95148.19;;;15.95;100.00
10097;BME280;5087;42.662;23.466;2023-06-14T04:40:54;95110.63;;;15.44;100.00
10097;BME280;5087;42.662;23.466;2023-06-14T04:43:38;95154.03;;;15.45;100.00
10097;BME280;5087;42.662;23.466;2023-06-14T04:46:07;95077.75;;;15.08;100.00
10097;BME280;5087;42.662;23.466;2023-06-14T04:48:40;95158.38;;;15.62;100.00
10097;BME280;5087;42.662;23.466;2023-06-14T04:51:10;95153.00;;;15.66;100.00
10097;BME280;5087;42.662;23.466;2023-06-14T04:53:38;95149.81;;;15.48;100.00
10097;BME280;5087;42.662;23.466;2023-06-14T04:56:07;95150.88;;;15.59;100.00
10097;BME280;5087;42.662;23.466;2023-06-14T04:58:37;95146.78;;;15.69;100.00
10097;BME280;5087;42.662;23.466;2023-06-14T05:01:05;95147.41;;;15.78;100.00
10097;BME280;5087;42.662;23.466;2023-06-14T05:03:35;95166.75;;;15.86;100.00
10097;BME280;5087;42.662;23.466;2023-06-14T05:06:04;95154.97;;;16.01;100.00
10097;BME280;5087;42.662;23.466;2023-06-14T05:08:32;95154.91;;;15.81;100.00
10097;BME280;5087;42.662;23.466;2023-06-14T05:11:00;95165.94;;;16.21;100.00
10097;BME280;5087;42.662;23.466;2023-06-14T05:13:30;95157.06;;;16.43;100.00
10097;BME280;5087;42.662;23.466;2023-06-14T05:16:03;95152.88;;;16.69;100.00
10097;BME280;5087;42.662;23.466;2023-06-14T05:18:35;95164.41;;;16.98;100.00
10097;BME280;5087;42.662;23.466;2023-06-14T05:21:03;95159.00;;;16.63;100.00
10097;BME280;5087;42.662;23.466;2023-06-14T05:23:44;95159.97;;;17.13;100.00
10097;BME280;5087;42.662;23.466;2023-06-14T05:26:13;95154.25;;;17.22;100.00
10097;BME280;5087;42.662;23.466;2023-06-14T05:28:40;95171.03;;;17.63;100.00
10097;BME280;5087;42.662;23.466;2023-06-14T05:31:09;95169.03;;;16.94;100.00
10097;BME280;5087;42.662;23.466;2023-06-14T05:33:36;95162.78;;;17.17;100.00
10097;BME280;5087;42.662;23.466;2023-06-14T05:36:04;95118.09;;;16.93;100.00
10097;BME280;5087;42.662;23.466;2023-06-14T05:38:31;95170.94;;;17.13;100.00
10097;BME280;5087;42.662;23.466;2023-06-14T05:40:59;95170.94;;;17.13;100.00
10097;BME280;5087;42.662;23.466;2023-06-14T05:43:29;95163.94;;;17.62;100.00
10097;BME280;5087;42.662;23.466;2023-06-14T05:45:57;95163.41;;;17.53;100.00
10097;BME280;5087;42.662;23.466;2023-06-14T05:48:27;95162.72;;;17.13;100.00
10097;BME280;5087;42.662;23.466;2023-06-14T05:50:54;95158.88;;;17.41;100.00
10097;BME280;5087;42.662;23.466;2023-06-14T05:53:21;95158.31;;;17.08;100.00
10097;BME280;5087;42.662;23.466;2023-06-14T05:55:49;95180.25;;;17.08;100.00
10097;BME280;5087;42.662;23.466;2023-06-14T05:58:19;95178.03;;;16.75;100.00
10097;BME280;5087;42.662;23.466;2023-06-14T06:00:56;95188.50;;;17.32;100.00
10097;BME280;5087;42.662;23.466;2023-06-14T06:03:24;95189.50;;;17.20;100.00
10097;BME280;5087;42.662;23.466;2023-06-14T06:05:56;95186.53;;;17.09;100.00
10097;BME280;5087;42.662;23.466;2023-06-14T06:08:23;95151.44;;;16.95;100.00
10097;BME280;5087;42.662;23.466;2023-06-14T06:10:51;95175.56;;;16.89;100.00
10097;BME280;5087;42.662;23.466;2023-06-14T06:13:18;95179.69;;;16.80;100.00
10097;BME280;5087;42.662;23.466;2023-06-14T06:15:46;95170.31;;;16.81;100.00
10097;BME280;5087;42.662;23.466;2023-06-14T06:18:14;95144.69;;;17.12;100.00
10097;BME280;5087;42.662;23.466;2023-06-14T06:20:42;95173.16;;;17.50;100.00
10097;BME280;5087;42.662;23.466;2023-06-14T06:23:11;95187.81;;;17.58;100.00
10097;BME280;5087;42.662;23.466;2023-06-14T06:25:39;95189.69;;;17.54;100.00
10097;BME280;5087;42.662;23.466;2023-06-14T06:28:07;95180.78;;;17.37;100.00
10097;BME280;5087;42.662;23.466;2023-06-14T06:30:34;95188.16;;;17.33;100.00
10097;BME280;5087;42.662;23.466;2023-06-14T06:33:03;95188.59;;;17.85;100.00
10097;BME280;5087;42.662;23.466;2023-06-14T06:35:30;95192.84;;;18.60;100.00
10097;BME280;5087;42.662;23.466;2023-06-14T06:37:59;95192.78;;;19.21;100.00
10097;BME280;5087;42.662;23.466;2023-06-14T06:40:30;95190.50;;;19.26;100.00
10097;BME280;5087;42.662;23.466;2023-06-14T06:42:57;95184.38;;;18.42;100.00
10097;BME280;5087;42.662;23.466;2023-06-14T06:45:27;95192.28;;;18.20;100.00
10097;BME280;5087;42.662;23.466;2023-06-14T06:47:56;95194.38;;;18.57;100.00
10097;BME280;5087;42.662;23.466;2023-06-14T06:50:24;95191.00;;;18.71;100.00
10097;BME280;5087;42.662;23.466;2023-06-14T06:52:52;95196.53;;;18.41;100.00
10097;BME280;5087;42.662;23.466;2023-06-14T06:55:20;95204.09;;;18.81;100.00
10097;BME280;5087;42.662;23.466;2023-06-14T06:57:49;95156.47;;;18.13;100.00
10097;BME280;5087;42.662;23.466;2023-06-14T07:00:18;95190.78;;;18.53;100.00
10097;BME280;5087;42.662;23.466;2023-06-14T07:02:46;95191.91;;;19.13;100.00
10097;BME280;5087;42.662;23.466;2023-06-14T07:05:13;95193.19;;;18.89;100.00
10097;BME280;5087;42.662;23.466;2023-06-14T07:07:41;95171.69;;;18.64;100.00
10097;BME280;5087;42.662;23.466;2023-06-14T07:10:09;95194.38;;;18.57;100.00
10097;BME280;5087;42.662;23.466;2023-06-14T07:12:37;95162.13;;;18.54;100.00
10097;BME280;5087;42.662;23.466;2023-06-14T07:15:07;95173.88;;;18.51;100.00
10097;BME280;5087;42.662;23.466;2023-06-14T07:17:35;95165.13;;;18.76;100.00
10097;BME280;5087;42.662;23.466;2023-06-14T07:20:03;95206.50;;;18.87;100.00
10097;BME280;5087;42.662;23.466;2023-06-14T07:22:34;95193.34;;;19.00;100.00
10097;BME280;5087;42.662;23.466;2023-06-14T07:25:01;95192.00;;;19.24;100.00
10097;BME280;5087;42.662;23.466;2023-06-14T07:27:29;95141.97;;;19.56;100.00
10097;BME280;5087;42.662;23.466;2023-06-14T07:29:57;95174.19;;;19.48;100.00
10097;BME280;5087;42.662;23.466;2023-06-14T07:32:26;95179.44;;;19.68;100.00
10097;BME280;5087;42.662;23.466;2023-06-14T07:34:54;95171.75;;;19.02;100.00
10097;BME280;5087;42.662;23.466;2023-06-14T07:37:21;95162.34;;;19.44;100.00
10097;BME280;5087;42.662;23.466;2023-06-14T07:39:48;95155.91;;;19.29;100.00
10097;BME280;5087;42.662;23.466;2023-06-14T07:42:15;95169.25;;;19.68;100.00
10097;BME280;5087;42.662;23.466;2023-06-14T07:44:43;95176.97;;;19.14;100.00
10097;BME280;5087;42.662;23.466;2023-06-14T07:47:10;95162.19;;;19.29;100.00
10097;BME280;5087;42.662;23.466;2023-06-14T07:49:40;95136.97;;;19.69;100.00
10097;BME280;5087;42.662;23.466;2023-06-14T07:52:07;95174.50;;;20.47;100.00
10097;BME280;5087;42.662;23.466;2023-06-14T07:54:37;95140.91;;;20.23;100.00
10097;BME280;5087;42.662;23.466;2023-06-14T07:57:06;95168.59;;;21.77;100.00
10097;BME280;5087;42.662;23.466;2023-06-14T07:59:34;95163.78;;;22.28;100.00
10097;BME280;5087;42.662;23.466;2023-06-14T08:02:02;95173.63;;;21.28;100.00
10097;BME280;5087;42.662;23.466;2023-06-14T08:04:29;95173.59;;;21.13;100.00
10097;BME280;5087;42.662;23.466;2023-06-14T08:06:58;95148.31;;;20.90;100.00
10097;BME280;5087;42.662;23.466;2023-06-14T08:09:26;95145.22;;;21.16;100.00
10097;BME280;5087;42.662;23.466;2023-06-14T08:11:55;95177.25;;;21.93;100.00
10097;BME280;5087;42.662;23.466;2023-06-14T08:14:23;95183.13;;;22.35;100.00
10097;BME280;5087;42.662;23.466;2023-06-14T08:16:51;95179.22;;;22.29;100.00
10097;BME280;5087;42.662;23.466;2023-06-14T08:19:19;95194.19;;;22.46;100.00
10097;BME280;5087;42.662;23.466;2023-06-14T08:21:46;95194.84;;;20.95;100.00
10097;BME280;5087;42.662;23.466;2023-06-14T08:24:15;95185.50;;;20.40;100.00
10097;BME280;5087;42.662;23.466;2023-06-14T08:26:43;95198.78;;;20.90;100.00
10097;BME280;5087;42.662;23.466;2023-06-14T08:29:11;95181.91;;;21.24;100.00
10097;BME280;5087;42.662;23.466;2023-06-14T08:31:38;95207.19;;;21.37;100.00
10097;BME280;5087;42.662;23.466;2023-06-14T08:34:06;95194.59;;;20.51;100.00
10097;BME280;5087;42.662;23.466;2023-06-14T08:36:35;95162.69;;;21.71;100.00
10097;BME280;5087;42.662;23.466;2023-06-14T08:39:02;95195.03;;;21.85;100.00
10097;BME280;5087;42.662;23.466;2023-06-14T08:41:32;95172.00;;;21.05;100.00
10097;BME280;5087;42.662;23.466;2023-06-14T08:44:00;95195.97;;;20.79;100.00
10097;BME280;5087;42.662;23.466;2023-06-14T08:46:27;95194.00;;;20.80;100.00
10097;BME280;5087;42.662;23.466;2023-06-14T08:48:58;95177.53;;;21.05;100.00
10097;BME280;5087;42.662;23.466;2023-06-14T08:51:34;95150.03;;;21.52;100.00
10097;BME280;5087;42.662;23.466;2023-06-14T08:54:02;95176.06;;;22.05;100.00
10097;BME280;5087;42.662;23.466;2023-06-14T08:56:33;95168.94;;;21.50;100.00
10097;BME280;5087;42.662;23.466;2023-06-14T08:59:02;95172.09;;;21.34;100.00
10097;BME280;5087;42.662;23.466;2023-06-14T09:01:33;95157.13;;;21.96;100.00
10097;BME280;5087;42.662;23.466;2023-06-14T09:04:00;95155.91;;;22.41;100.00
10097;BME280;5087;42.662;23.466;2023-06-14T09:06:29;95172.03;;;22.68;100.00
10097;BME280;5087;42.662;23.466;2023-06-14T09:08:57;95179.13;;;21.21;100.00
10097;BME280;5087;42.662;23.466;2023-06-14T09:11:24;95170.09;;;21.34;100.00
10097;BME280;5087;42.662;23.466;2023-06-14T09:13:55;95138.53;;;21.07;100.00
10097;BME280;5087;42.662;23.466;2023-06-14T09:16:23;95174.72;;;20.94;100.00
10097;BME280;5087;42.662;23.466;2023-06-14T09:18:53;95164.16;;;21.14;100.00
10097;BME280;5087;42.662;23.466;2023-06-14T09:21:21;95147.69;;;21.72;100.00
10097;BME280;5087;42.662;23.466;2023-06-14T09:23:49;95154.31;;;21.31;100.00
10097;BME280;5087;42.662;23.466;2023-06-14T09:26:18;95168.53;;;22.45;100.00
10097;BME280;5087;42.662;23.466;2023-06-14T09:28:50;95167.31;;;22.61;100.00
10097;BME280;5087;42.662;23.466;2023-06-14T09:31:20;95166.28;;;23.15;100.00
10097;BME280;5087;42.662;23.466;2023-06-14T09:33:49;95171.06;;;23.18;100.00
10097;BME280;5087;42.662;23.466;2023-06-14T09:36:18;95164.34;;;23.04;100.00
10097;BME280;5087;42.662;23.466;2023-06-14T09:38:55;95144.28;;;24.06;100.00
10097;BME280;5087;42.662;23.466;2023-06-14T09:41:30;95130.13;;;24.73;100.00
10097;BME280;5087;42.662;23.466;2023-06-14T09:43:58;95117.34;;;25.88;100.00
10097;BME280;5087;42.662;23.466;2023-06-14T09:46:30;95133.53;;;23.66;100.00
10097;BME280;5087;42.662;23.466;2023-06-14T09:48:58;95111.88;;;22.79;100.00
10097;BME280;5087;42.662;23.466;2023-06-14T09:51:26;95138.47;;;22.58;100.00
10097;BME280;5087;42.662;23.466;2023-06-14T09:54:05;95125.56;;;21.58;100.00
10097;BME280;5087;42.662;23.466;2023-06-14T09:56:35;95137.75;;;21.42;100.00
10097;BME280;5087;42.662;23.466;2023-06-14T09:59:05;95143.69;;;21.30;100.00
10097;BME280;5087;42.662;23.466;2023-06-14T10:01:36;95112.53;;;21.22;100.00
10097;BME280;5087;42.662;23.466;2023-06-14T10:04:07;95117.63;;;22.18;100.00
10097;BME280;5087;42.662;23.466;2023-06-14T10:06:40;95127.44;;;23.29;100.00
10097;BME280;5087;42.662;23.466;2023-06-14T10:09:10;95120.88;;;24.10;100.00
10097;BME280;5087;42.662;23.466;2023-06-14T10:11:38;95121.81;;;23.44;100.00
10097;BME280;5087;42.662;23.466;2023-06-14T10:14:10;95124.09;;;23.56;100.00
10097;BME280;5087;42.662;23.466;2023-06-14T10:16:47;95130.56;;;22.53;100.00
10097;BME280;5087;42.662;23.466;2023-06-14T10:19:21;95095.13;;;22.08;100.00
10097;BME280;5087;42.662;23.466;2023-06-14T10:21:56;95121.50;;;22.53;100.00
10097;BME280;5087;42.662;23.466;2023-06-14T10:24:32;95115.56;;;22.51;100.00
10097;BME280;5087;42.662;23.466;2023-06-14T10:27:02;95121.78;;;22.76;100.00
10097;BME280;5087;42.662;23.466;2023-06-14T10:29:31;95112.97;;;23.63;100.00
10097;BME280;5087;42.662;23.466;2023-06-14T10:32:00;95107.50;;;24.01;100.00
10097;BME280;5087;42.662;23.466;2023-06-14T10:34:30;95073.56;;;23.41;100.00
10097;BME280;5087;42.662;23.466;2023-06-14T10:37:03;95091.63;;;23.00;100.00
10097;BME280;5087;42.662;23.466;2023-06-14T10:39:32;95117.28;;;23.04;100.00
10097;BME280;5087;42.662;23.466;2023-06-14T10:42:02;95090.66;;;23.32;100.00
10097;BME280;5087;42.662;23.466;2023-06-14T10:44:42;95100.44;;;24.70;100.00
10097;BME280;5087;42.662;23.466;2023-06-14T10:47:21;95081.56;;;25.43;100.00
10097;BME280;5087;42.662;23.466;2023-06-14T10:49:51;95091.41;;;25.20;100.00
10097;BME280;5087;42.662;23.466;2023-06-14T10:52:24;95068.03;;;24.25;100.00
10097;BME280;5087;42.662;23.466;2023-06-14T10:55:05;95083.28;;;25.60;100.00
10097;BME280;5087;42.662;23.466;2023-06-14T10:57:35;95068.97;;;24.11;100.00
10097;BME280;5087;42.662;23.466;2023-06-14T11:00:07;95066.56;;;25.37;100.00
10097;BME280;5087;42.662;23.466;2023-06-14T11:05:58;95068.00;;;24.59;100.00
10097;BME280;5087;42.662;23.466;2023-06-14T11:09:05;95068.28;;;25.78;100.00
10097;BME280;5087;42.662;23.466;2023-06-14T11:11:42;95062.84;;;24.61;100.00
10097;BME280;5087;42.662;23.466;2023-06-14T11:14:10;95064.53;;;24.21;100.00
10097;BME280;5087;42.662;23.466;2023-06-14T11:16:38;95070.81;;;23.83;100.00
10097;BME280;5087;42.662;23.466;2023-06-14T11:19:07;95070.53;;;24.81;100.00
10097;BME280;5087;42.662;23.466;2023-06-14T11:21:40;95045.78;;;25.92;100.00
10097;BME280;5087;42.662;23.466;2023-06-14T11:24:10;95056.56;;;25.90;100.00
10097;BME280;5087;42.662;23.466;2023-06-14T11:26:38;95061.81;;;24.79;100.00
10097;BME280;5087;42.662;23.466;2023-06-14T11:29:06;95047.41;;;25.19;100.00
10097;BME280;5087;42.662;23.466;2023-06-14T11:31:33;95048.91;;;26.38;100.00
10097;BME280;5087;42.662;23.466;2023-06-14T11:34:01;95049.56;;;27.20;100.00
10097;BME280;5087;42.662;23.466;2023-06-14T11:36:30;95044.50;;;27.97;96.48
10097;BME280;5087;42.662;23.466;2023-06-14T11:39:00;95026.00;;;24.88;100.00
10097;BME280;5087;42.662;23.466;2023-06-14T11:41:37;95053.75;;;24.57;100.00
10097;BME280;5087;42.662;23.466;2023-06-14T11:44:05;95052.09;;;25.49;100.00
10097;BME280;5087;42.662;23.466;2023-06-14T11:46:33;95035.56;;;26.30;100.00
10097;BME280;5087;42.662;23.466;2023-06-14T11:49:01;95040.97;;;25.73;100.00
10097;BME280;5087;42.662;23.466;2023-06-14T11:51:30;95014.69;;;25.54;100.00
10097;BME280;5087;42.662;23.466;2023-06-14T11:54:01;95013.19;;;25.49;100.00
10097;BME280;5087;42.662;23.466;2023-06-14T11:56:30;95023.75;;;25.82;100.00
10097;BME280;5087;42.662;23.466;2023-06-14T11:58:58;95012.56;;;25.85;100.00
10097;BME280;5087;42.662;23.466;2023-06-14T12:01:26;95016.03;;;25.89;100.00
10097;BME280;5087;42.662;23.466;2023-06-14T12:03:54;95001.03;;;26.47;100.00
10097;BME280;5087;42.662;23.466;2023-06-14T12:06:26;95013.78;;;25.60;100.00
10097;BME280;5087;42.662;23.466;2023-06-14T12:09:00;95004.72;;;24.81;100.00
10097;BME280;5087;42.662;23.466;2023-06-14T12:11:32;94984.91;;;25.31;100.00
10097;BME280;5087;42.662;23.466;2023-06-14T12:14:06;94992.97;;;24.97;100.00
10097;BME280;5087;42.662;23.466;2023-06-14T12:16:34;94969.06;;;25.27;100.00
10097;BME280;5087;42.662;23.466;2023-06-14T12:19:12;94965.50;;;24.48;100.00
10097;BME280;5087;42.662;23.466;2023-06-14T12:21:40;95000.16;;;24.68;100.00
10097;BME280;5087;42.662;23.466;2023-06-14T12:24:09;94985.72;;;25.75;100.00
10097;BME280;5087;42.662;23.466;2023-06-14T12:26:38;94984.94;;;25.03;100.00
10097;BME280;5087;42.662;23.466;2023-06-14T12:29:06;94982.44;;;24.85;100.00
10097;BME280;5087;42.662;23.466;2023-06-14T12:31:34;94984.63;;;24.70;100.00
10097;BME280;5087;42.662;23.466;2023-06-14T12:34:02;94984.06;;;24.83;100.00
10097;BME280;5087;42.662;23.466;2023-06-14T12:37:08;94976.72;;;24.96;100.00
10097;BME280;5087;42.662;23.466;2023-06-14T12:39:37;94981.31;;;25.06;100.00
10097;BME280;5087;42.662;23.466;2023-06-14T12:42:07;94972.34;;;25.70;98.29
10097;BME280;5087;42.662;23.466;2023-06-14T12:44:35;94976.03;;;25.39;100.00
10097;BME280;5087;42.662;23.466;2023-06-14T12:47:06;94963.22;;;25.89;100.00
10097;BME280;5087;42.662;23.466;2023-06-14T12:49:34;94969.44;;;25.29;100.00
10097;BME280;5087;42.662;23.466;2023-06-14T12:52:02;94961.91;;;25.74;100.00
10097;BME280;5087;42.662;23.466;2023-06-14T12:54:30;94953.50;;;24.86;100.00
10097;BME280;5087;42.662;23.466;2023-06-14T12:56:59;94971.88;;;24.45;100.00
10097;BME280;5087;42.662;23.466;2023-06-14T12:59:27;94946.63;;;23.70;100.00
10097;BME280;5087;42.662;23.466;2023-06-14T13:02:00;94946.19;;;24.10;100.00
10097;BME280;5087;42.662;23.466;2023-06-14T13:04:38;94937.25;;;23.95;100.00
10097;BME280;5087;42.662;23.466;2023-06-14T13:07:05;94942.44;;;23.93;100.00